createdAt,value
2022-08-24T00:01:45.909Z,49.40
2022-08-24T00:04:13.754Z,49.50
2022-08-24T00:06:42.782Z,49.50
2022-08-24T00:09:09.294Z,49.40
2022-08-24T00:11:35.804Z,49.50
2022-08-24T00:14:08.358Z,49.60
2022-08-24T00:16:34.893Z,49.60
2022-08-24T00:19:01.414Z,49.50
2022-08-24T00:21:32.292Z,49.50
2022-08-24T00:23:58.804Z,49.70
2022-08-24T00:26:29.578Z,49.60
2022-08-24T00:28:56.106Z,49.60
2022-08-24T00:31:22.655Z,49.60
2022-08-24T00:33:49.222Z,49.50
2022-08-24T00:36:15.722Z,49.70
2022-08-24T00:38:42.244Z,49.60
2022-08-24T00:41:08.785Z,49.40
2022-08-24T00:43:35.305Z,49.30
2022-08-24T00:46:02.373Z,49.30
2022-08-24T00:48:28.956Z,49.30
2022-08-24T00:50:55.487Z,49.30
2022-08-24T00:53:22.020Z,49.30
2022-08-24T00:55:48.552Z,49.10
2022-08-24T00:58:17.838Z,49.30
2022-08-24T01:00:48.665Z,49.20
2022-08-24T01:03:15.320Z,49.20
2022-08-24T01:05:41.867Z,49.40
2022-08-24T01:08:08.399Z,49.30
2022-08-24T01:10:34.917Z,49.30
2022-08-24T01:13:01.649Z,49.30
2022-08-24T01:15:28.222Z,49.40
2022-08-24T01:17:54.742Z,49.20
2022-08-24T01:20:21.294Z,49.30
2022-08-24T01:22:47.796Z,49.30
2022-08-24T01:25:14.329Z,49.30
2022-08-24T01:27:40.852Z,49.30
2022-08-24T01:30:08.881Z,49.30
2022-08-24T01:32:36.745Z,49.30
2022-08-24T01:35:03.284Z,49.30
2022-08-24T01:37:29.812Z,49.30
2022-08-24T01:39:56.419Z,49.30
2022-08-24T01:42:25.685Z,49.30
2022-08-24T01:44:52.191Z,50.00
2022-08-24T01:47:18.711Z,49.30
2022-08-24T01:49:45.217Z,49.30
2022-08-24T01:52:11.741Z,49.30
2022-08-24T01:54:38.239Z,49.30
2022-08-24T01:57:04.776Z,49.40
2022-08-24T01:59:31.290Z,49.50
2022-08-24T02:01:58.018Z,49.40
2022-08-24T02:04:24.586Z,49.40
2022-08-24T02:06:51.120Z,49.30
2022-08-24T02:09:17.621Z,49.40
2022-08-24T02:11:44.155Z,49.50
2022-08-24T02:14:10.682Z,49.40
2022-08-24T02:16:39.919Z,49.50
2022-08-24T02:19:08.344Z,49.50
2022-08-24T02:21:34.885Z,49.50
2022-08-24T02:24:01.411Z,49.60
2022-08-24T02:26:31.514Z,49.50
2022-08-24T02:29:03.810Z,49.60
2022-08-24T02:31:30.603Z,49.60
2022-08-24T02:33:57.197Z,49.60
2022-08-24T02:36:26.263Z,49.60
2022-08-24T02:38:53.163Z,49.60
2022-08-24T02:41:20.996Z,49.60
2022-08-24T02:43:47.527Z,49.70
2022-08-24T02:46:14.404Z,49.70
2022-08-24T02:48:40.932Z,49.70
2022-08-24T02:51:07.451Z,49.70
2022-08-24T02:53:33.975Z,49.70
2022-08-24T02:56:00.513Z,49.70
2022-08-24T02:58:27.043Z,49.80
2022-08-24T03:00:53.604Z,50.00
2022-08-24T03:03:20.138Z,50.00
2022-08-24T03:05:46.669Z,50.00
2022-08-24T03:08:13.179Z,50.00
2022-08-24T03:10:39.716Z,50.00
2022-08-24T03:13:06.225Z,50.00
2022-08-24T03:15:32.821Z,50.10
2022-08-24T03:17:59.401Z,50.10
2022-08-24T03:20:25.934Z,50.20
2022-08-24T03:22:52.442Z,50.20
2022-08-24T03:25:18.991Z,50.20
2022-08-24T03:27:45.506Z,50.20
2022-08-24T03:30:12.042Z,50.30
2022-08-24T03:32:38.551Z,50.30
2022-08-24T03:35:05.057Z,50.20
2022-08-24T03:37:31.565Z,50.30
2022-08-24T03:39:58.097Z,50.30
2022-08-24T03:42:24.671Z,50.40
2022-08-24T03:44:51.208Z,50.40
2022-08-24T03:47:17.738Z,50.40
2022-08-24T03:49:44.249Z,50.30
2022-08-24T03:52:14.468Z,50.30
2022-08-24T03:54:40.990Z,50.30
2022-08-24T03:57:07.504Z,50.40
2022-08-24T03:59:34.033Z,50.40
2022-08-24T04:02:08.001Z,50.40
2022-08-24T04:04:36.757Z,50.40
2022-08-24T04:07:03.270Z,50.50
2022-08-24T04:09:31.111Z,50.40
2022-08-24T04:11:57.641Z,50.60
2022-08-24T04:14:26.971Z,50.50
2022-08-24T04:16:57.723Z,50.60
2022-08-24T04:19:24.517Z,50.60
2022-08-24T04:21:51.044Z,50.60
2022-08-24T04:24:17.576Z,50.60
2022-08-24T04:26:45.931Z,50.60
2022-08-24T04:29:12.755Z,50.70
2022-08-24T04:31:39.352Z,50.70
2022-08-24T04:34:05.904Z,50.70
2022-08-24T04:36:32.439Z,50.80
2022-08-24T04:38:58.950Z,50.70
2022-08-24T04:41:30.905Z,50.90
2022-08-24T04:43:58.134Z,50.80
2022-08-24T04:46:26.519Z,50.90
2022-08-24T04:48:53.043Z,50.80
2022-08-24T04:51:19.572Z,50.90
2022-08-24T04:53:46.086Z,50.90
2022-08-24T04:56:12.637Z,50.90
2022-08-24T04:58:39.152Z,50.90
2022-08-24T05:01:08.559Z,50.90
2022-08-24T05:03:35.187Z,50.90
2022-08-24T05:06:01.729Z,50.90
2022-08-24T05:08:28.254Z,50.80
2022-08-24T05:10:54.788Z,50.60
2022-08-24T05:13:21.313Z,50.50
2022-08-24T05:15:47.849Z,50.60
2022-08-24T05:18:14.481Z,50.60
2022-08-24T05:20:41.023Z,50.60
2022-08-24T05:23:07.723Z,50.60
2022-08-24T05:25:34.493Z,50.60
2022-08-24T05:28:01.005Z,50.60
2022-08-24T05:30:27.529Z,50.60
2022-08-24T05:32:54.070Z,50.50
2022-08-24T05:35:26.601Z,50.40
2022-08-24T05:37:53.119Z,50.50
2022-08-24T05:40:19.711Z,50.40
2022-08-24T05:42:46.292Z,50.30
2022-08-24T05:45:12.839Z,50.30
2022-08-24T05:47:39.370Z,50.30
2022-08-24T05:50:05.882Z,50.20
2022-08-24T05:52:32.417Z,50.10
2022-08-24T05:54:58.928Z,50.20
2022-08-24T05:57:25.443Z,50.10
2022-08-24T05:59:56.694Z,50.10
2022-08-24T06:02:23.364Z,50.00
2022-08-24T06:04:49.998Z,50.00
2022-08-24T06:07:16.510Z,50.00
2022-08-24T06:09:43.042Z,49.90
2022-08-24T06:12:14.591Z,49.90
2022-08-24T06:14:41.119Z,49.80
2022-08-24T06:17:07.756Z,49.80
2022-08-24T06:19:34.391Z,50.00
2022-08-24T06:22:00.915Z,49.90
2022-08-24T06:24:27.428Z,49.90
2022-08-24T06:26:54.858Z,49.90
2022-08-24T06:29:21.379Z,49.90
2022-08-24T06:31:47.954Z,49.90
2022-08-24T06:34:20.692Z,49.90
2022-08-24T06:36:47.212Z,50.10
2022-08-24T06:39:13.730Z,50.00
2022-08-24T06:41:41.679Z,49.90
2022-08-24T06:44:08.187Z,49.80
2022-08-24T06:46:34.782Z,50.00
2022-08-24T06:49:01.351Z,50.00
2022-08-24T06:51:27.884Z,50.00
2022-08-24T06:53:54.405Z,50.10
2022-08-24T06:56:20.962Z,50.00
2022-08-24T06:58:47.491Z,50.00
2022-08-24T07:01:14.074Z,50.10
2022-08-24T07:03:40.631Z,50.00
2022-08-24T07:06:07.175Z,50.00
2022-08-24T07:08:33.684Z,50.00
2022-08-24T07:11:00.196Z,49.90
2022-08-24T07:13:26.721Z,50.10
2022-08-24T07:15:53.255Z,50.00
2022-08-24T07:18:19.830Z,49.90
2022-08-24T07:20:46.346Z,49.90
2022-08-24T07:23:12.861Z,49.80
2022-08-24T07:25:39.373Z,49.90
2022-08-24T07:28:10.112Z,49.90
2022-08-24T07:30:37.855Z,50.00
2022-08-24T07:33:04.383Z,50.00
2022-08-24T07:35:30.903Z,50.00
2022-08-24T07:37:57.447Z,49.90
2022-08-24T07:40:24.107Z,49.90
2022-08-24T07:42:56.632Z,49.90
2022-08-24T07:45:23.169Z,49.80
2022-08-24T07:47:55.063Z,49.80
2022-08-24T07:50:22.443Z,49.80
2022-08-24T07:52:48.965Z,49.70
2022-08-24T07:55:15.486Z,49.70
2022-08-24T07:57:42.031Z,50.40
2022-08-24T08:00:08.548Z,49.70
2022-08-24T08:02:36.304Z,49.70
2022-08-24T08:05:03.107Z,49.70
2022-08-24T08:07:30.696Z,49.70
2022-08-24T08:09:57.219Z,49.70
2022-08-24T08:12:23.753Z,49.70
2022-08-24T08:14:50.258Z,49.70
2022-08-24T08:17:16.768Z,49.70
2022-08-24T08:19:43.293Z,49.70
2022-08-24T08:22:14.892Z,49.80
2022-08-24T08:24:41.411Z,49.70
2022-08-24T08:27:07.947Z,49.70
2022-08-24T08:29:34.451Z,49.70
2022-08-24T08:32:00.978Z,49.70
2022-08-24T08:34:32.700Z,49.60
2022-08-24T08:36:59.223Z,49.60
2022-08-24T08:39:25.747Z,49.60
2022-08-24T08:41:52.253Z,49.60
2022-08-24T08:44:19.109Z,49.60
2022-08-24T08:46:45.618Z,49.60
2022-08-24T08:49:12.148Z,49.60
2022-08-24T08:51:38.656Z,49.60
2022-08-24T08:54:08.698Z,49.50
2022-08-24T08:56:35.208Z,49.50
2022-08-24T08:59:01.754Z,49.50
2022-08-24T09:01:32.647Z,49.30
2022-08-24T09:03:59.535Z,49.50
2022-08-24T09:06:26.088Z,49.50
2022-08-24T09:08:52.625Z,49.60
2022-08-24T09:11:19.144Z,49.60
2022-08-24T09:13:45.690Z,49.60
2022-08-24T09:16:12.226Z,49.60
2022-08-24T09:18:38.754Z,49.50
2022-08-24T09:21:05.272Z,49.60
2022-08-24T09:23:32.729Z,49.60
2022-08-24T09:25:59.245Z,49.60
2022-08-24T09:28:25.773Z,49.60
2022-08-24T09:30:52.335Z,49.60
2022-08-24T09:33:18.911Z,49.60
2022-08-24T09:35:46.062Z,49.60
2022-08-24T09:38:12.573Z,49.60
2022-08-24T09:40:39.106Z,49.60
2022-08-24T09:43:05.770Z,49.60
2022-08-24T09:45:32.317Z,49.60
2022-08-24T09:47:58.833Z,49.60
2022-08-24T09:50:25.373Z,49.70
2022-08-24T09:52:52.329Z,49.70
2022-08-24T09:55:18.849Z,50.40
2022-08-24T09:58:00.170Z,49.70
2022-08-24T10:00:27.279Z,49.70
2022-08-24T10:02:53.805Z,49.70
2022-08-24T10:05:20.837Z,49.80
2022-08-24T10:07:47.412Z,49.80
2022-08-24T10:10:14.771Z,49.90
2022-08-24T10:12:41.316Z,49.90
2022-08-24T10:15:07.840Z,49.90
2022-08-24T10:17:35.169Z,50.00
2022-08-24T10:20:01.691Z,50.10
2022-08-24T10:22:28.219Z,50.10
2022-08-24T10:24:54.747Z,50.10
2022-08-24T10:27:21.270Z,50.20
2022-08-24T10:29:47.828Z,50.10
2022-08-24T10:32:14.332Z,50.20
2022-08-24T10:34:40.864Z,50.30
2022-08-24T10:37:08.752Z,50.30
2022-08-24T10:39:35.783Z,50.30
2022-08-24T10:42:02.499Z,50.30
2022-08-24T10:44:29.098Z,50.40
2022-08-24T10:46:58.709Z,50.40
2022-08-24T10:49:25.497Z,50.40
2022-08-24T10:51:56.802Z,50.60
2022-08-24T10:54:23.341Z,50.60
2022-08-24T10:56:49.872Z,50.60
2022-08-24T10:59:16.446Z,50.70
2022-08-24T11:01:42.978Z,50.70
2022-08-24T11:04:09.495Z,50.80
2022-08-24T11:06:36.023Z,50.80
2022-08-24T11:09:02.527Z,50.80
2022-08-24T11:11:29.059Z,50.90
2022-08-24T11:13:55.566Z,51.00
2022-08-24T11:16:22.140Z,51.00
2022-08-24T11:18:49.091Z,51.00
2022-08-24T11:21:15.607Z,51.10
2022-08-24T11:23:42.124Z,51.20
2022-08-24T11:26:08.660Z,51.20
2022-08-24T11:28:35.183Z,51.20
2022-08-24T11:31:02.887Z,51.10
2022-08-24T11:33:29.406Z,51.20
2022-08-24T11:35:55.974Z,51.20
2022-08-24T11:38:26.959Z,51.20
2022-08-24T11:40:53.499Z,51.30
2022-08-24T11:43:20.022Z,51.40
2022-08-24T11:45:50.847Z,51.40
2022-08-24T11:48:17.372Z,51.50
2022-08-24T11:50:43.916Z,51.50
2022-08-24T11:53:12.191Z,51.50
2022-08-24T11:55:46.856Z,51.50
2022-08-24T11:58:16.816Z,51.30
2022-08-24T12:00:43.341Z,51.60
2022-08-24T12:03:09.942Z,51.70
2022-08-24T12:05:36.579Z,51.70
2022-08-24T12:08:03.219Z,51.50
2022-08-24T12:10:32.796Z,51.70
2022-08-24T12:12:59.548Z,51.80
2022-08-24T12:15:26.105Z,51.70
2022-08-24T12:17:52.624Z,51.70
2022-08-24T12:20:19.126Z,51.70
2022-08-24T12:22:45.629Z,51.90
2022-08-24T12:25:12.165Z,51.80
2022-08-24T12:27:38.700Z,51.80
2022-08-24T12:30:05.581Z,52.10
2022-08-24T12:32:32.373Z,52.10
2022-08-24T12:34:59.068Z,52.10
2022-08-24T12:37:25.627Z,51.80
2022-08-24T12:39:52.206Z,51.70
2022-08-24T12:42:18.780Z,51.70
2022-08-24T12:44:45.305Z,51.50
2022-08-24T12:47:13.521Z,51.50
2022-08-24T12:49:40.127Z,51.50
2022-08-24T12:52:06.658Z,51.50
2022-08-24T12:54:33.415Z,51.50
2022-08-24T12:57:02.565Z,51.50
2022-08-24T12:59:29.266Z,51.50
2022-08-24T13:01:55.817Z,51.50
2022-08-24T13:04:22.366Z,51.40
2022-08-24T13:06:48.885Z,51.50
2022-08-24T13:09:15.389Z,51.50
2022-08-24T13:11:41.908Z,51.20
2022-08-24T13:14:08.416Z,51.20
2022-08-24T13:16:34.938Z,51.20
2022-08-24T13:19:02.871Z,51.10
2022-08-24T13:21:29.398Z,51.10
2022-08-24T13:23:55.922Z,51.00
2022-08-24T13:26:22.479Z,51.00
2022-08-24T13:28:48.995Z,51.00
2022-08-24T13:31:15.624Z,51.00
2022-08-24T13:33:42.198Z,51.00
2022-08-24T13:36:08.750Z,51.00
2022-08-24T13:38:35.286Z,50.90
2022-08-24T13:41:01.819Z,50.80
2022-08-24T13:43:28.330Z,50.90
2022-08-24T13:45:54.892Z,50.90
2022-08-24T13:48:21.437Z,50.90
2022-08-24T13:50:47.968Z,50.90
2022-08-24T13:53:14.503Z,50.90
2022-08-24T13:55:41.706Z,50.90
2022-08-24T13:58:08.211Z,50.90
2022-08-24T14:00:34.743Z,50.80
2022-08-24T14:03:01.270Z,50.80
2022-08-24T14:05:27.878Z,50.80
2022-08-24T14:07:54.448Z,50.70
2022-08-24T14:10:26.992Z,50.70
2022-08-24T14:12:56.958Z,50.60
2022-08-24T14:15:23.471Z,50.60
2022-08-24T14:17:53.958Z,50.70
2022-08-24T14:20:22.216Z,50.70
2022-08-24T14:22:49.120Z,50.70
2022-08-24T14:25:15.631Z,50.70
2022-08-24T14:27:42.162Z,50.70
2022-08-24T14:30:08.703Z,50.60
2022-08-24T14:32:35.243Z,50.70
2022-08-24T14:35:01.761Z,50.70
2022-08-24T14:37:28.293Z,50.60
2022-08-24T14:39:54.866Z,50.60
2022-08-24T14:42:21.422Z,50.60
2022-08-24T14:44:47.953Z,50.70
2022-08-24T14:47:14.995Z,50.70
2022-08-24T14:49:41.508Z,50.60
2022-08-24T14:52:08.061Z,50.60
2022-08-24T14:54:34.594Z,50.60
2022-08-24T14:57:01.117Z,50.50
2022-08-24T14:59:27.678Z,50.40
2022-08-24T15:01:54.305Z,50.20
2022-08-24T15:04:37.111Z,50.10
2022-08-24T15:07:04.828Z,50.20
2022-08-24T15:09:31.342Z,50.10
2022-08-24T15:12:03.015Z,50.20
2022-08-24T15:14:33.685Z,50.20
2022-08-24T15:17:04.032Z,50.20
2022-08-24T15:19:30.604Z,50.20
2022-08-24T15:21:57.227Z,50.20
2022-08-24T15:26:55.171Z,50.30
2022-08-24T15:29:21.692Z,50.30
2022-08-24T15:31:48.209Z,50.30
2022-08-24T15:34:14.731Z,50.30
2022-08-24T15:36:41.276Z,50.30
2022-08-24T15:39:07.783Z,50.20
2022-08-24T15:41:34.290Z,50.20
2022-08-24T15:44:00.815Z,49.80
2022-08-24T15:46:27.417Z,49.80
2022-08-24T15:48:54.007Z,49.60
2022-08-24T15:51:20.543Z,48.90
2022-08-24T15:53:47.057Z,49.00
2022-08-24T15:56:13.583Z,48.60
2022-08-24T15:58:40.109Z,48.30
2022-08-24T16:01:06.656Z,48.60
2022-08-24T16:03:33.224Z,48.40
2022-08-24T16:05:59.813Z,48.30
2022-08-24T16:08:26.336Z,48.10
2022-08-24T16:10:52.867Z,48.00
2022-08-24T16:13:19.387Z,47.80
2022-08-24T16:15:45.906Z,47.90
2022-08-24T16:18:12.434Z,47.80
2022-08-24T16:20:38.953Z,48.10
2022-08-24T16:23:05.462Z,48.30
2022-08-24T16:25:31.973Z,48.60
2022-08-24T16:27:58.537Z,48.70
2022-08-24T16:30:27.097Z,48.90
2022-08-24T16:32:54.126Z,48.90
2022-08-24T16:35:20.640Z,49.00
2022-08-24T16:37:47.152Z,49.00
2022-08-24T16:40:13.730Z,49.00
2022-08-24T16:42:40.280Z,49.10
2022-08-24T16:45:06.788Z,49.20
2022-08-24T16:47:33.318Z,49.20
2022-08-24T16:49:59.848Z,49.20
2022-08-24T16:52:26.387Z,49.20
2022-08-24T16:54:52.904Z,49.20
2022-08-24T16:57:21.100Z,49.20
2022-08-24T16:59:47.623Z,49.20
2022-08-24T17:02:14.187Z,49.20
2022-08-24T17:04:40.740Z,49.20
2022-08-24T17:07:07.257Z,49.20
2022-08-24T17:09:33.790Z,49.30
2022-08-24T17:12:03.063Z,49.30
2022-08-24T17:14:29.596Z,49.30
2022-08-24T17:16:56.189Z,49.30
2022-08-24T17:19:22.753Z,49.40
2022-08-24T17:21:49.274Z,49.30
2022-08-24T17:24:15.809Z,49.30
2022-08-24T17:26:45.669Z,49.40
2022-08-24T17:29:15.159Z,49.40
2022-08-24T17:31:45.193Z,49.50
2022-08-24T17:34:13.734Z,49.50
2022-08-24T17:36:40.241Z,49.40
2022-08-24T17:39:06.765Z,49.40
2022-08-24T17:41:39.261Z,49.40
2022-08-24T17:44:05.812Z,49.40
2022-08-24T17:46:32.722Z,49.40
2022-08-24T17:48:59.240Z,49.40
2022-08-24T17:51:25.765Z,49.40
2022-08-24T17:53:57.153Z,49.50
2022-08-24T17:56:23.662Z,49.50
2022-08-24T17:58:50.198Z,49.40
2022-08-24T18:01:16.746Z,49.40
2022-08-24T18:03:45.617Z,49.50
2022-08-24T18:06:12.162Z,49.50
2022-08-24T18:08:38.688Z,49.50
2022-08-24T18:11:05.209Z,49.50
2022-08-24T18:13:31.747Z,49.50
2022-08-24T18:15:58.268Z,49.50
2022-08-24T18:18:24.780Z,49.50
2022-08-24T18:20:51.297Z,49.50
2022-08-24T18:23:21.102Z,49.40
2022-08-24T18:25:47.969Z,49.50
2022-08-24T18:28:14.508Z,49.50
2022-08-24T18:30:41.523Z,49.50
2022-08-24T18:33:08.053Z,49.40
2022-08-24T18:35:34.572Z,49.40
2022-08-24T18:38:01.076Z,49.40
2022-08-24T18:40:33.001Z,49.40
2022-08-24T18:43:00.086Z,49.40
2022-08-24T18:45:26.649Z,49.40
2022-08-24T18:47:55.021Z,49.40
2022-08-24T18:50:21.564Z,49.30
2022-08-24T18:52:48.090Z,49.40
2022-08-24T18:55:14.614Z,49.50
2022-08-24T18:57:41.111Z,49.40
2022-08-24T19:00:07.662Z,49.40
2022-08-24T19:02:34.201Z,49.40
2022-08-24T19:05:00.778Z,49.40
2022-08-24T19:07:33.400Z,49.20
2022-08-24T19:09:59.933Z,49.30
2022-08-24T19:12:26.455Z,49.30
2022-08-24T19:14:52.996Z,49.30
2022-08-24T19:17:19.516Z,49.30
2022-08-24T19:19:46.057Z,49.40
2022-08-24T19:22:15.169Z,49.30
2022-08-24T19:24:41.696Z,49.30
2022-08-24T19:27:08.200Z,49.20
2022-08-24T19:29:55.294Z,49.20
2022-08-24T19:32:22.607Z,49.20
2022-08-24T19:34:49.186Z,49.20
2022-08-24T19:37:15.703Z,49.20
2022-08-24T19:39:42.261Z,49.30
2022-08-24T19:42:08.773Z,49.30
2022-08-24T19:44:37.545Z,49.30
2022-08-24T19:47:04.148Z,49.30
2022-08-24T19:49:30.730Z,49.30
2022-08-24T19:51:57.240Z,49.40
2022-08-24T19:54:23.740Z,49.40
2022-08-24T19:56:50.267Z,49.40
2022-08-24T19:59:16.785Z,49.30
2022-08-24T20:01:45.271Z,49.30
2022-08-24T20:04:11.813Z,49.30
2022-08-24T20:06:38.347Z,49.30
2022-08-24T20:09:04.862Z,49.30
2022-08-24T20:11:31.393Z,49.30
2022-08-24T20:14:03.387Z,49.30
2022-08-24T20:16:29.956Z,49.30
2022-08-24T20:18:56.564Z,49.30
2022-08-24T20:21:25.208Z,49.30
2022-08-24T20:23:54.758Z,49.40
2022-08-24T20:26:21.266Z,49.30
2022-08-24T20:28:47.777Z,49.30
2022-08-24T20:31:14.348Z,49.40
2022-08-24T20:33:40.879Z,49.30
2022-08-24T20:36:07.398Z,49.30
2022-08-24T20:38:33.907Z,49.30
2022-08-24T20:41:00.433Z,49.40
2022-08-24T20:43:26.955Z,49.40
2022-08-24T20:45:53.488Z,49.40
2022-08-24T20:48:20.013Z,49.40
2022-08-24T20:50:46.558Z,49.40
2022-08-24T20:53:13.086Z,50.10
2022-08-24T20:55:39.619Z,49.50
2022-08-24T20:58:06.142Z,49.50
2022-08-24T21:00:32.715Z,49.50
2022-08-24T21:02:59.375Z,49.50
2022-08-24T21:05:25.937Z,49.60
2022-08-24T21:07:52.450Z,49.60
2022-08-24T21:10:19.002Z,49.60
2022-08-24T21:12:45.524Z,49.60
2022-08-24T21:15:15.311Z,49.60
2022-08-24T21:17:41.815Z,49.70
2022-08-24T21:20:08.355Z,49.70
2022-08-24T21:22:34.874Z,49.70
2022-08-24T21:25:01.392Z,49.80
2022-08-24T21:27:27.914Z,49.80
2022-08-24T21:29:54.437Z,49.80
2022-08-24T21:32:20.946Z,49.80
2022-08-24T21:34:47.470Z,49.80
2022-08-24T21:37:14.093Z,49.80
2022-08-24T21:39:41.631Z,49.90
2022-08-24T21:42:08.164Z,49.80
2022-08-24T21:44:34.678Z,49.90
2022-08-24T21:47:01.992Z,49.90
2022-08-24T21:49:28.519Z,49.90
2022-08-24T21:51:55.061Z,49.90
2022-08-24T21:54:21.583Z,50.00
2022-08-24T21:56:51.336Z,49.90
2022-08-24T21:59:17.854Z,49.90
2022-08-24T22:01:44.428Z,50.00
2022-08-24T22:04:15.400Z,49.90
2022-08-24T22:06:41.930Z,49.90
2022-08-24T22:09:08.430Z,49.90
2022-08-24T22:11:34.946Z,49.90
2022-08-24T22:14:01.448Z,49.80
2022-08-24T22:16:28.044Z,49.80
2022-08-24T22:18:54.661Z,49.80
2022-08-24T22:21:21.195Z,49.90
2022-08-24T22:23:47.712Z,49.90
2022-08-24T22:26:15.366Z,49.80
2022-08-24T22:28:41.894Z,49.80
2022-08-24T22:31:08.460Z,49.80
2022-08-24T22:33:35.021Z,49.80
2022-08-24T22:36:01.556Z,49.90
2022-08-24T22:38:28.082Z,49.90
2022-08-24T22:40:54.602Z,49.80
2022-08-24T22:43:24.826Z,49.80
2022-08-24T22:45:51.689Z,49.80
2022-08-24T22:48:18.196Z,49.90
2022-08-24T22:50:44.739Z,49.80
2022-08-24T22:53:11.262Z,49.90
2022-08-24T22:55:37.785Z,49.80
2022-08-24T22:58:04.304Z,49.80
2022-08-24T23:00:33.406Z,49.80
2022-08-24T23:02:59.939Z,49.80
2022-08-24T23:05:26.526Z,49.80
2022-08-24T23:07:53.051Z,49.80
2022-08-24T23:10:19.588Z,49.70
2022-08-24T23:12:51.397Z,49.70
2022-08-24T23:15:21.394Z,49.80
2022-08-24T23:17:51.452Z,49.80
2022-08-24T23:20:17.966Z,49.70
2022-08-24T23:22:44.486Z,49.70
2022-08-24T23:25:11.001Z,49.70
2022-08-24T23:27:38.690Z,49.70
2022-08-24T23:30:05.466Z,49.70
2022-08-24T23:32:31.995Z,49.70
2022-08-24T23:34:58.535Z,49.60
2022-08-24T23:37:25.083Z,49.60
2022-08-24T23:39:51.645Z,49.60
2022-08-24T23:42:21.421Z,49.60
2022-08-24T23:44:47.948Z,49.60
2022-08-24T23:47:14.480Z,49.60
2022-08-24T23:49:41.007Z,49.60
2022-08-24T23:52:07.552Z,49.60
2022-08-24T23:54:34.071Z,49.60
2022-08-24T23:57:00.589Z,49.60
2022-08-24T23:59:27.090Z,49.60
